Yuma MCAS/Yuma International Airport
KNYL : now visible

Airfield :











YOU CAN JOIN US ON...

 
LOGIN :

Register | Disclaimer

   EN    FR    IT 

 









Legend :    VFR   Marginal VFR   IFR   Intensive IFR   Very Intensive IFR
Visi :
Ceiling :
>= 8 km
>= 3000ft
5 to 8 km
1000 to 3000 ft
1500m to 5 km
500 to 1000 ft
800 to 1500m
200 to 500 ft
< 800m
< 200 ft
Symbols :   Thunderstorms  Fog  Heavy snow  Heavy precipitations  Wind > 20 kt






- Airport Elevation : 213 ft
- IATA code : YUM


KNYL - Yuma MCAS/Yuma International

CURRENT METAR :
  • 011057Z AUTO 02004KT 10SM CLR 10/M07 A3008 RMK AO2 SLP183 T01001067 $

EXPIRED METARs :
  • 010957Z AUTO 04005KT 10SM CLR 11/M06 A3008 RMK AO2 SLP185 T01111061 $
  • 010857Z AUTO 34004KT 10SM CLR 09/M05 A3009 RMK AO2 SLP187 T00891050 55012 $

TAF TAF KNYL
Valid from the 01 at 09:00 until the 02 at 09:00 UTC


0109/0209 VRB05KT 9999 SKC QNH3003INS
BECMG 0118/0120 01010KT 9999 SKC QNH2997INS
BECMG 0202/0204 VRB05KT 9999 SKC QNH3001INS AUTOMATED SENSOR METWATCH 0109 TIL 0114 T09/0113Z T25/0121Z
KZLA FIR / North America



MET'MAP, your aeronautical weather chart ! - Copyright ORBIFLY December 2007 - Disclaimer

ORBIFLY MET'MAP TEAM :

Programming & Development : Alexandra Zaïnal
Concept & original design : Baudouin d'Aumeries
Assistance for programming : Marc-Olivier Méhu
Technical & hardware support : Manuel Goepfert

Contact : metmap@orbifly.com




SOURCES & CREDITS :

   NOAA       Earth
Advisory